createdAt,value
2022-11-08T00:01:32.153Z,1.38
2022-11-08T00:03:03.970Z,1.05
2022-11-08T00:04:35.806Z,1.75
2022-11-08T00:06:26.173Z,1.10
2022-11-08T00:08:16.695Z,0.90
2022-11-08T00:10:07.281Z,1.10
2022-11-08T00:11:57.598Z,1.00
2022-11-08T00:13:48.066Z,1.20
2022-11-08T00:15:19.811Z,1.00
2022-11-08T00:16:51.539Z,1.30
2022-11-08T00:18:23.255Z,1.10
2022-11-08T00:19:55.194Z,1.13
2022-11-08T00:21:27.565Z,1.33
2022-11-08T00:22:59.414Z,1.30
2022-11-08T00:24:31.162Z,1.17
2022-11-08T00:26:02.893Z,0.90
2022-11-08T00:27:34.640Z,1.10
2022-11-08T00:29:06.367Z,1.30
2022-11-08T00:30:38.124Z,1.23
2022-11-08T00:32:14.017Z,1.05
2022-11-08T00:33:45.928Z,1.17
2022-11-08T00:35:17.671Z,0.80
2022-11-08T00:36:49.392Z,1.40
2022-11-08T00:38:21.219Z,1.50
2022-11-08T00:39:52.973Z,1.77
2022-11-08T00:41:24.684Z,1.02
2022-11-08T00:42:56.425Z,1.15
2022-11-08T00:44:28.181Z,1.17
2022-11-08T00:45:59.896Z,1.70
2022-11-08T00:47:31.642Z,1.08
2022-11-08T00:49:03.981Z,1.05
2022-11-08T00:50:38.821Z,1.10
2022-11-08T00:52:10.596Z,0.90
2022-11-08T00:53:42.404Z,1.25
2022-11-08T00:55:14.176Z,0.95
2022-11-08T00:56:46.633Z,1.15
2022-11-08T00:58:21.054Z,1.13
2022-11-08T00:59:55.158Z,1.02
2022-11-08T01:01:27.406Z,0.82
2022-11-08T01:03:17.628Z,0.90
2022-11-08T01:04:49.371Z,0.90
2022-11-08T01:06:22.827Z,1.33
2022-11-08T01:07:54.561Z,1.38
2022-11-08T01:09:26.292Z,1.10
2022-11-08T01:11:02.684Z,0.73
2022-11-08T01:12:34.455Z,1.15
2022-11-08T01:14:06.419Z,0.75
2022-11-08T01:15:42.114Z,1.15
2022-11-08T01:17:13.928Z,1.13
2022-11-08T01:18:46.927Z,1.25
2022-11-08T01:20:18.689Z,0.98
2022-11-08T01:21:50.497Z,1.02
2022-11-08T01:23:22.217Z,1.25
2022-11-08T01:24:53.935Z,1.05
2022-11-08T01:26:28.753Z,0.95
2022-11-08T01:28:00.490Z,1.35
2022-11-08T01:29:33.350Z,1.15
2022-11-08T01:31:08.525Z,1.55
2022-11-08T01:32:40.312Z,1.35
2022-11-08T01:34:12.032Z,1.10
2022-11-08T01:35:45.428Z,1.08
2022-11-08T01:37:17.229Z,1.05
2022-11-08T01:38:49.348Z,1.83
2022-11-08T01:40:21.100Z,1.08
2022-11-08T01:41:52.877Z,0.93
2022-11-08T01:43:30.414Z,1.17
2022-11-08T01:45:04.604Z,1.00
2022-11-08T01:46:37.832Z,1.10
2022-11-08T01:48:10.034Z,1.17
2022-11-08T01:49:46.352Z,1.23
2022-11-08T01:51:23.550Z,1.45
2022-11-08T01:52:55.902Z,1.35
2022-11-08T01:54:32.537Z,1.63
2022-11-08T01:56:04.956Z,1.40
2022-11-08T01:58:12.555Z,1.33
2022-11-08T01:59:47.789Z,1.30
2022-11-08T02:01:19.607Z,1.33
2022-11-08T02:02:59.880Z,0.90
2022-11-08T02:04:32.566Z,1.17
2022-11-08T02:06:04.711Z,1.27
2022-11-08T02:07:36.459Z,1.15
2022-11-08T02:09:10.810Z,1.20
2022-11-08T02:10:50.341Z,1.02
2022-11-08T02:12:22.938Z,1.17
2022-11-08T02:13:55.649Z,1.02
2022-11-08T02:15:27.468Z,1.27
2022-11-08T02:16:59.403Z,0.93
2022-11-08T02:18:32.619Z,0.93
2022-11-08T02:20:04.717Z,0.82
2022-11-08T02:21:47.010Z,0.82
2022-11-08T02:23:32.387Z,1.10
2022-11-08T02:25:04.395Z,1.23
2022-11-08T02:26:36.937Z,1.10
2022-11-08T02:28:08.752Z,1.23
2022-11-08T02:29:41.217Z,1.48
2022-11-08T02:31:15.008Z,1.40
2022-11-08T02:32:47.305Z,1.13
2022-11-08T02:34:22.564Z,1.25
2022-11-08T02:35:56.628Z,1.13
2022-11-08T02:37:28.512Z,1.15
2022-11-08T02:39:00.401Z,0.90
2022-11-08T02:40:45.472Z,1.20
2022-11-08T02:42:19.232Z,1.13
2022-11-08T02:43:51.149Z,1.00
2022-11-08T02:45:22.863Z,0.95
2022-11-08T02:46:54.593Z,1.10
2022-11-08T02:48:26.891Z,0.98
2022-11-08T02:49:58.640Z,1.00
2022-11-08T02:51:30.803Z,0.90
2022-11-08T02:53:03.070Z,0.85
2022-11-08T02:54:34.836Z,1.05
2022-11-08T02:56:06.778Z,0.85
2022-11-08T02:57:38.508Z,0.70
2022-11-08T02:59:10.328Z,0.80
2022-11-08T03:00:42.175Z,0.60
2022-11-08T03:02:14.029Z,0.80
2022-11-08T03:03:45.912Z,0.95
2022-11-08T03:05:18.650Z,0.80
2022-11-08T03:06:50.386Z,0.95
2022-11-08T03:08:22.144Z,0.70
2022-11-08T03:09:54.179Z,0.60
2022-11-08T03:11:26.034Z,0.68
2022-11-08T03:13:06.124Z,0.75
2022-11-08T03:14:37.829Z,0.90
2022-11-08T03:16:09.566Z,0.85
2022-11-08T03:17:41.340Z,1.00
2022-11-08T03:19:13.135Z,0.80
2022-11-08T03:20:44.855Z,0.70
2022-11-08T03:22:16.631Z,0.60
2022-11-08T03:23:48.353Z,0.65
2022-11-08T03:25:20.067Z,1.00
2022-11-08T03:26:51.796Z,0.80
2022-11-08T03:28:23.797Z,0.70
2022-11-08T03:29:55.678Z,0.65
2022-11-08T03:31:27.650Z,0.70
2022-11-08T03:32:59.423Z,0.90
2022-11-08T03:34:31.157Z,0.52
2022-11-08T03:36:03.098Z,0.68
2022-11-08T03:37:34.840Z,0.60
2022-11-08T03:39:06.700Z,0.60
2022-11-08T03:40:38.450Z,0.70
2022-11-08T03:42:10.468Z,0.60
2022-11-08T03:43:42.248Z,1.00
2022-11-08T03:45:15.226Z,0.70
2022-11-08T03:46:46.945Z,0.60
2022-11-08T03:48:19.268Z,1.10
2022-11-08T03:49:51.275Z,0.77
2022-11-08T03:51:23.028Z,0.85
2022-11-08T03:52:55.853Z,0.95
2022-11-08T03:54:27.578Z,0.70
2022-11-08T03:56:00.511Z,1.05
2022-11-08T03:57:32.246Z,0.90
2022-11-08T03:59:03.972Z,0.90
2022-11-08T04:00:35.718Z,1.05
2022-11-08T04:02:07.674Z,0.90
2022-11-08T04:03:39.541Z,1.23
2022-11-08T04:05:12.689Z,1.17
2022-11-08T04:06:44.433Z,1.25
2022-11-08T04:08:16.532Z,1.00
2022-11-08T04:09:48.455Z,1.05
2022-11-08T04:11:38.735Z,0.90
2022-11-08T04:13:29.191Z,1.10
2022-11-08T04:15:16.284Z,1.17
2022-11-08T04:16:48.066Z,1.50
2022-11-08T04:18:38.347Z,1.02
2022-11-08T04:20:29.247Z,1.23
2022-11-08T04:22:00.980Z,1.10
2022-11-08T04:23:35.144Z,1.40
2022-11-08T04:25:07.317Z,1.50
2022-11-08T04:26:40.972Z,1.38
2022-11-08T04:28:12.702Z,1.52
2022-11-08T04:29:44.707Z,1.25
2022-11-08T04:31:19.044Z,1.25
2022-11-08T04:32:50.755Z,1.30
2022-11-08T04:34:22.510Z,1.20
2022-11-08T04:35:54.431Z,1.02
2022-11-08T04:37:26.169Z,1.08
2022-11-08T04:38:57.948Z,1.00
2022-11-08T04:40:31.873Z,1.10
2022-11-08T04:42:03.707Z,0.95
2022-11-08T04:43:35.874Z,1.27
2022-11-08T04:45:08.279Z,0.90
2022-11-08T04:46:40.129Z,1.15
2022-11-08T04:48:11.899Z,0.90
2022-11-08T04:49:43.632Z,1.10
2022-11-08T04:51:29.565Z,1.00
2022-11-08T04:53:01.445Z,1.40
2022-11-08T04:54:33.190Z,1.13
2022-11-08T04:56:20.144Z,1.10
2022-11-08T04:57:51.889Z,1.15
2022-11-08T04:59:23.599Z,1.17
2022-11-08T05:00:55.345Z,1.10
2022-11-08T05:02:27.193Z,1.17
2022-11-08T05:03:59.062Z,1.50
2022-11-08T05:05:30.829Z,1.30
2022-11-08T05:07:02.579Z,1.45
2022-11-08T05:08:34.364Z,1.60
2022-11-08T05:10:06.741Z,1.58
2022-11-08T05:11:42.413Z,1.35
2022-11-08T05:13:14.246Z,1.77
2022-11-08T05:14:45.984Z,1.67
2022-11-08T05:16:21.352Z,1.95
2022-11-08T05:17:53.271Z,2.03
2022-11-08T05:19:43.627Z,2.03
2022-11-08T05:21:35.883Z,1.73
2022-11-08T05:23:25.299Z,1.67
2022-11-08T05:24:57.034Z,1.90
2022-11-08T05:26:29.587Z,1.90
2022-11-08T05:28:01.338Z,1.65
2022-11-08T05:29:33.241Z,2.08
2022-11-08T05:31:05.141Z,1.83
2022-11-08T05:32:36.945Z,1.80
2022-11-08T05:34:08.945Z,1.50
2022-11-08T05:35:40.771Z,1.20
2022-11-08T05:37:12.616Z,1.40
2022-11-08T05:38:44.741Z,1.77
2022-11-08T05:40:16.537Z,2.20
2022-11-08T05:41:48.308Z,1.90
2022-11-08T05:43:20.407Z,1.30
2022-11-08T05:44:55.088Z,1.65
2022-11-08T05:46:26.831Z,1.50
2022-11-08T05:48:03.696Z,1.40
2022-11-08T05:49:35.927Z,1.38
2022-11-08T05:51:07.776Z,1.50
2022-11-08T05:52:39.968Z,1.60
2022-11-08T05:54:13.206Z,1.70
2022-11-08T05:55:44.981Z,2.38
2022-11-08T05:57:21.114Z,2.30
2022-11-08T05:58:53.799Z,1.73
2022-11-08T06:00:25.642Z,2.15
2022-11-08T06:01:57.479Z,1.40
2022-11-08T06:03:30.233Z,1.40
2022-11-08T06:05:02.552Z,1.35
2022-11-08T06:06:34.348Z,1.50
2022-11-08T06:08:06.126Z,1.65
2022-11-08T06:09:37.869Z,1.60
2022-11-08T06:11:12.711Z,1.50
2022-11-08T06:12:44.506Z,1.45
2022-11-08T06:14:16.262Z,1.40
2022-11-08T06:15:48.029Z,1.80
2022-11-08T06:17:19.786Z,1.17
2022-11-08T06:18:52.428Z,1.40
2022-11-08T06:20:24.159Z,1.50
2022-11-08T06:21:55.901Z,1.40
2022-11-08T06:23:28.121Z,1.40
2022-11-08T06:25:00.146Z,1.30
2022-11-08T06:26:31.937Z,1.85
2022-11-08T06:28:03.857Z,1.70
2022-11-08T06:29:35.597Z,1.50
2022-11-08T06:31:07.369Z,1.40
2022-11-08T06:32:39.126Z,1.63
2022-11-08T06:34:11.197Z,2.05
2022-11-08T06:35:42.989Z,1.70
2022-11-08T06:37:16.018Z,1.65
2022-11-08T06:38:47.803Z,2.00
2022-11-08T06:40:19.565Z,2.38
2022-11-08T06:41:51.358Z,2.28
2022-11-08T06:43:23.501Z,2.00
2022-11-08T06:44:55.614Z,1.80
2022-11-08T06:46:27.354Z,1.95
2022-11-08T06:48:01.616Z,2.03
2022-11-08T06:49:33.453Z,2.05
2022-11-08T06:51:05.381Z,2.67
2022-11-08T06:52:37.349Z,2.80
2022-11-08T06:54:10.437Z,3.15
2022-11-08T06:55:44.867Z,3.05
2022-11-08T06:57:16.614Z,2.90
2022-11-08T06:58:48.371Z,2.40
2022-11-08T07:00:20.837Z,2.67
2022-11-08T07:01:52.773Z,2.67
2022-11-08T07:03:24.598Z,3.22
2022-11-08T07:04:56.332Z,2.95
2022-11-08T07:06:28.521Z,2.95
2022-11-08T07:08:01.237Z,3.13
2022-11-08T07:09:33.044Z,2.83
2022-11-08T07:11:05.246Z,2.85
2022-11-08T07:12:36.990Z,3.00
2022-11-08T07:14:08.772Z,2.88
2022-11-08T07:15:41.657Z,2.80
2022-11-08T07:17:13.558Z,3.20
2022-11-08T07:18:45.351Z,3.40
2022-11-08T07:20:17.318Z,3.30
2022-11-08T07:21:49.052Z,3.40
2022-11-08T07:23:20.943Z,3.42
2022-11-08T07:24:52.823Z,3.33
2022-11-08T07:26:24.630Z,3.40
2022-11-08T07:27:57.845Z,3.63
2022-11-08T07:29:29.596Z,3.97
2022-11-08T07:31:04.090Z,3.35
2022-11-08T07:32:35.842Z,3.20
2022-11-08T07:34:07.602Z,3.20
2022-11-08T07:35:39.824Z,3.45
2022-11-08T07:37:11.550Z,3.33
2022-11-08T07:38:43.289Z,3.35
2022-11-08T07:40:15.165Z,3.30
2022-11-08T07:41:48.411Z,3.25
2022-11-08T07:43:20.171Z,3.35
2022-11-08T07:44:53.386Z,3.40
2022-11-08T07:46:25.169Z,4.00
2022-11-08T07:48:11.080Z,3.30
2022-11-08T07:49:43.900Z,4.13
2022-11-08T07:51:24.611Z,3.88
2022-11-08T07:53:06.423Z,3.53
2022-11-08T07:54:59.165Z,3.80
2022-11-08T07:56:39.705Z,4.05
2022-11-08T07:58:30.261Z,4.13
2022-11-08T08:00:08.490Z,4.15
2022-11-08T08:01:54.974Z,3.80
2022-11-08T08:03:46.706Z,4.22
2022-11-08T08:05:41.731Z,4.00
2022-11-08T08:07:15.880Z,3.40
2022-11-08T08:08:50.941Z,3.72
2022-11-08T08:10:22.720Z,4.40
2022-11-08T08:11:57.570Z,3.75
2022-11-08T08:13:40.785Z,4.03
2022-11-08T08:15:12.554Z,3.60
2022-11-08T08:17:00.687Z,3.67
2022-11-08T08:18:39.238Z,3.88
2022-11-08T08:20:12.573Z,4.30
2022-11-08T08:21:44.536Z,3.50
2022-11-08T08:23:16.557Z,4.28
2022-11-08T08:25:11.640Z,4.15
2022-11-08T08:26:43.443Z,4.22
2022-11-08T08:28:33.688Z,4.00
2022-11-08T08:30:30.957Z,3.97
2022-11-08T08:32:03.244Z,4.65
2022-11-08T08:33:47.006Z,3.97
2022-11-08T08:35:26.303Z,4.03
2022-11-08T08:37:03.125Z,4.28
2022-11-08T08:38:41.447Z,3.95
2022-11-08T08:40:34.482Z,3.83
2022-11-08T08:42:08.345Z,4.32
2022-11-08T08:43:40.174Z,4.32
2022-11-08T08:47:12.004Z,3.88
2022-11-08T08:48:53.625Z,4.28
2022-11-08T08:50:57.527Z,4.00
2022-11-08T08:52:38.274Z,3.97
2022-11-08T08:54:11.698Z,3.53
2022-11-08T08:55:43.876Z,3.85
2022-11-08T08:57:27.076Z,4.38
2022-11-08T09:03:27.080Z,4.03
2022-11-08T09:05:17.286Z,4.32
2022-11-08T09:06:57.738Z,4.23
2022-11-08T09:08:52.455Z,4.50
2022-11-08T09:10:24.496Z,4.20
2022-11-08T09:11:56.270Z,4.63
2022-11-08T09:13:30.973Z,4.53
2022-11-08T09:15:03.880Z,4.40
2022-11-08T09:16:35.797Z,4.22
2022-11-08T09:18:07.619Z,3.90
2022-11-08T09:19:39.395Z,3.78
2022-11-08T09:21:11.153Z,4.00
2022-11-08T09:22:42.984Z,3.95
2022-11-08T09:24:14.718Z,4.25
2022-11-08T09:25:46.505Z,4.50
2022-11-08T09:27:18.225Z,4.50
2022-11-08T09:28:50.244Z,4.35
2022-11-08T09:30:21.996Z,3.83
2022-11-08T09:31:56.131Z,3.90
2022-11-08T09:36:51.684Z,3.35
2022-11-08T09:38:23.524Z,3.65
2022-11-08T09:39:55.374Z,4.32
2022-11-08T09:41:41.230Z,4.18
2022-11-08T09:43:35.058Z,3.72
2022-11-08T09:45:18.845Z,3.45
2022-11-08T09:46:56.980Z,3.75
2022-11-08T09:48:38.057Z,3.95
2022-11-08T09:50:15.738Z,3.72
2022-11-08T09:51:49.110Z,3.97
2022-11-08T09:53:34.817Z,3.92
2022-11-08T09:55:09.927Z,4.00
2022-11-08T09:56:42.318Z,4.50
2022-11-08T09:58:37.518Z,4.07
2022-11-08T10:00:13.623Z,4.07
2022-11-08T10:01:45.487Z,3.95
2022-11-08T10:03:18.768Z,3.83
2022-11-08T10:05:00.222Z,4.15
2022-11-08T10:06:44.169Z,3.72
2022-11-08T10:08:44.106Z,4.78
2022-11-08T10:10:34.441Z,3.90
2022-11-08T10:12:21.351Z,3.88
2022-11-08T10:13:55.870Z,3.78
2022-11-08T10:16:01.541Z,4.03
2022-11-08T10:17:42.415Z,4.30
2022-11-08T10:19:38.277Z,4.43
2022-11-08T10:21:38.083Z,3.90
2022-11-08T10:23:36.836Z,3.88
2022-11-08T10:25:18.764Z,3.88
2022-11-08T10:26:53.276Z,3.88
2022-11-08T10:28:35.133Z,3.72
2022-11-08T10:30:42.074Z,3.80
2022-11-08T10:32:20.102Z,3.22
2022-11-08T10:33:54.271Z,2.88
2022-11-08T10:35:41.655Z,3.03
2022-11-08T10:37:16.680Z,3.17
2022-11-08T10:39:03.135Z,3.38
2022-11-08T10:40:41.402Z,3.10
2022-11-08T10:42:21.908Z,3.10
2022-11-08T10:44:11.794Z,2.90
2022-11-08T10:45:43.709Z,3.40
2022-11-08T10:47:24.689Z,3.00
2022-11-08T10:49:07.916Z,3.15
2022-11-08T10:50:52.009Z,3.00
2022-11-08T10:52:42.577Z,2.90
2022-11-08T10:54:51.199Z,2.90
2022-11-08T10:56:24.955Z,3.05
2022-11-08T10:57:57.013Z,3.22
2022-11-08T10:59:33.314Z,3.30
2022-11-08T11:01:25.734Z,2.47
2022-11-08T11:02:59.144Z,2.80
2022-11-08T11:04:33.487Z,2.70
2022-11-08T11:06:09.276Z,2.65
2022-11-08T11:07:44.050Z,2.65
2022-11-08T11:09:21.109Z,2.65
2022-11-08T11:10:52.877Z,2.35
2022-11-08T11:12:24.663Z,2.78
2022-11-08T11:14:19.374Z,2.63
2022-11-08T11:15:57.569Z,2.38
2022-11-08T11:17:37.097Z,2.45
2022-11-08T11:19:15.161Z,2.53
2022-11-08T11:21:13.694Z,2.65
2022-11-08T11:22:46.609Z,2.13
2022-11-08T11:24:20.749Z,2.03
2022-11-08T11:25:52.682Z,2.20
2022-11-08T11:27:31.036Z,2.35
2022-11-08T11:29:05.755Z,2.35
2022-11-08T11:30:37.720Z,1.50
2022-11-08T11:32:33.517Z,1.60
2022-11-08T11:34:37.555Z,2.00
2022-11-08T11:36:15.780Z,1.58
2022-11-08T11:37:48.716Z,1.98
2022-11-08T11:39:34.532Z,1.80
2022-11-08T11:41:19.194Z,1.85
2022-11-08T11:43:01.901Z,1.83
2022-11-08T11:44:52.833Z,1.90
2022-11-08T11:46:38.701Z,2.15
2022-11-08T11:48:21.343Z,2.05
2022-11-08T11:49:55.515Z,1.50
2022-11-08T11:51:30.372Z,1.13
2022-11-08T11:53:17.460Z,1.42
2022-11-08T11:54:49.882Z,1.05
2022-11-08T11:56:53.693Z,1.05
2022-11-08T11:58:55.329Z,1.20
2022-11-08T12:02:18.498Z,1.23
2022-11-08T12:04:18.308Z,1.50
2022-11-08T12:06:08.267Z,1.27
2022-11-08T12:07:56.844Z,1.27
2022-11-08T12:09:50.198Z,1.27
2022-11-08T12:11:44.457Z,1.08
2022-11-08T12:13:30.035Z,1.13
2022-11-08T12:15:11.763Z,1.10
2022-11-08T12:16:59.794Z,1.15
2022-11-08T12:18:44.616Z,1.17
2022-11-08T12:20:26.661Z,1.52
2022-11-08T12:21:58.955Z,1.58
2022-11-08T12:24:10.616Z,1.10
2022-11-08T12:26:09.396Z,1.17
2022-11-08T12:27:53.178Z,1.30
2022-11-08T12:29:51.399Z,1.30
2022-11-08T12:31:23.088Z,1.20
2022-11-08T12:33:26.502Z,1.17
2022-11-08T12:35:28.510Z,1.60
2022-11-08T12:37:12.192Z,1.25
2022-11-08T12:39:23.531Z,1.23
2022-11-08T12:41:04.243Z,1.38
2022-11-08T12:42:54.607Z,1.45
2022-11-08T12:45:08.557Z,1.30
2022-11-08T12:47:05.382Z,1.38
2022-11-08T12:48:52.550Z,1.23
2022-11-08T12:51:00.282Z,1.15
2022-11-08T12:52:54.151Z,1.20
2022-11-08T12:54:37.334Z,1.70
2022-11-08T12:56:22.839Z,1.00
2022-11-08T12:57:57.697Z,0.90
2022-11-08T12:59:37.181Z,0.90
2022-11-08T13:01:14.788Z,1.33
2022-11-08T13:03:05.567Z,1.08
2022-11-08T13:04:52.704Z,1.40
2022-11-08T13:06:47.946Z,1.20
2022-11-08T13:08:26.970Z,1.20
2022-11-08T13:10:21.632Z,1.33
2022-11-08T13:12:29.984Z,1.15
2022-11-08T13:14:02.415Z,1.10
2022-11-08T13:15:34.687Z,1.10
2022-11-08T13:17:09.139Z,1.20
2022-11-08T13:18:59.459Z,1.27
2022-11-08T13:20:39.360Z,1.20
2022-11-08T13:22:33.994Z,1.33
2022-11-08T13:24:14.182Z,1.13
2022-11-08T13:26:24.332Z,1.35
2022-11-08T13:27:56.522Z,1.20
2022-11-08T13:29:30.662Z,0.90
2022-11-08T13:31:12.694Z,1.10
2022-11-08T13:32:52.817Z,1.00
2022-11-08T13:34:38.150Z,1.00
2022-11-08T13:36:28.608Z,1.20
2022-11-08T13:38:18.594Z,1.13
2022-11-08T13:40:00.382Z,1.77
2022-11-08T13:41:32.404Z,1.08
2022-11-08T13:43:16.341Z,1.30
2022-11-08T13:44:54.314Z,1.38
2022-11-08T13:46:26.022Z,1.10
2022-11-08T13:48:22.451Z,1.02
2022-11-08T13:50:29.445Z,1.25
2022-11-08T13:52:38.469Z,1.08
2022-11-08T13:54:22.216Z,1.15
2022-11-08T13:55:53.895Z,1.10
2022-11-08T13:57:56.872Z,1.13
2022-11-08T13:59:31.656Z,1.20
2022-11-08T14:01:30.048Z,1.10
2022-11-08T14:03:34.953Z,1.33
2022-11-08T14:05:22.266Z,1.40
2022-11-08T14:07:12.179Z,1.20
2022-11-08T14:09:05.617Z,1.45
2022-11-08T14:10:55.681Z,1.40
2022-11-08T14:12:48.369Z,1.30
2022-11-08T14:14:20.065Z,1.10
2022-11-08T14:16:05.293Z,1.15
2022-11-08T14:17:47.649Z,1.20
2022-11-08T14:19:25.172Z,1.33
2022-11-08T14:20:57.631Z,1.55
2022-11-08T14:22:30.501Z,1.00
2022-11-08T14:24:03.500Z,1.20
2022-11-08T14:25:35.774Z,1.45
2022-11-08T14:27:07.560Z,1.02
2022-11-08T14:28:42.493Z,1.27
2022-11-08T14:30:20.390Z,1.48
2022-11-08T14:32:07.439Z,1.25
2022-11-08T14:33:42.835Z,1.10
2022-11-08T14:35:22.223Z,1.20
2022-11-08T14:36:56.142Z,1.05
2022-11-08T14:38:30.718Z,1.20
2022-11-08T14:40:02.545Z,1.13
2022-11-08T14:41:34.596Z,1.05
2022-11-08T14:43:06.910Z,1.10
2022-11-08T14:44:43.611Z,1.63
2022-11-08T14:46:31.801Z,1.30
2022-11-08T14:48:05.004Z,1.20
2022-11-08T14:49:38.391Z,1.10
2022-11-08T14:51:13.309Z,1.20
2022-11-08T14:52:45.710Z,1.50
2022-11-08T14:54:25.129Z,1.30
2022-11-08T14:56:03.217Z,1.63
2022-11-08T14:57:41.014Z,1.00
2022-11-08T14:59:13.590Z,1.42
2022-11-08T15:00:47.320Z,1.60
2022-11-08T15:02:19.262Z,1.17
2022-11-08T15:04:00.074Z,1.67
2022-11-08T15:05:40.518Z,1.23
2022-11-08T15:07:12.435Z,1.30
2022-11-08T15:08:53.078Z,1.38
2022-11-08T15:10:25.209Z,1.30
2022-11-08T15:12:00.645Z,1.13
2022-11-08T15:13:42.829Z,1.40
2022-11-08T15:15:22.381Z,1.40
2022-11-08T15:17:01.541Z,1.38
2022-11-08T15:18:40.298Z,1.83
2022-11-08T15:20:13.184Z,1.35
2022-11-08T15:21:51.557Z,1.67
2022-11-08T15:23:36.235Z,1.98
2022-11-08T15:25:14.031Z,2.55
2022-11-08T15:27:11.765Z,2.60
2022-11-08T15:29:12.326Z,2.78
2022-11-08T15:30:45.605Z,2.92
2022-11-08T15:32:21.252Z,2.53
2022-11-08T15:33:53.103Z,2.35
2022-11-08T15:35:33.902Z,2.50
2022-11-08T15:37:28.376Z,2.50
2022-11-08T15:39:01.353Z,2.13
2022-11-08T15:40:36.060Z,2.08
2022-11-08T15:42:16.389Z,3.05
2022-11-08T15:43:50.104Z,2.90
2022-11-08T15:45:29.019Z,2.83
2022-11-08T15:47:00.796Z,2.67
2022-11-08T15:48:33.599Z,2.88
2022-11-08T15:50:25.823Z,2.63
2022-11-08T15:52:01.005Z,2.58
2022-11-08T15:53:32.756Z,2.35
2022-11-08T15:55:04.907Z,2.15
2022-11-08T15:56:37.667Z,2.83
2022-11-08T15:58:14.932Z,3.20
2022-11-08T15:59:46.785Z,3.42
2022-11-08T16:01:23.054Z,3.63
2022-11-08T16:02:55.608Z,3.13
2022-11-08T16:04:28.279Z,2.83
2022-11-08T16:06:00.116Z,3.60
2022-11-08T16:07:31.871Z,3.53
2022-11-08T16:09:03.609Z,4.43
2022-11-08T16:10:40.353Z,3.33
2022-11-08T16:12:15.675Z,3.83
2022-11-08T16:13:49.196Z,3.92
2022-11-08T16:15:27.159Z,3.38
2022-11-08T16:16:58.961Z,3.63
2022-11-08T16:18:34.300Z,3.50
2022-11-08T16:20:19.084Z,4.45
2022-11-08T16:21:51.947Z,3.63
2022-11-08T16:23:23.685Z,3.38
2022-11-08T16:24:55.416Z,3.40
2022-11-08T16:26:27.189Z,3.92
2022-11-08T16:28:08.379Z,3.33
2022-11-08T16:29:40.653Z,3.42
2022-11-08T16:31:15.317Z,3.63
2022-11-08T16:32:47.679Z,4.13
2022-11-08T16:34:19.866Z,4.30
2022-11-08T16:35:54.313Z,4.18
2022-11-08T16:37:26.128Z,3.97
2022-11-08T16:39:01.377Z,4.07
2022-11-08T16:40:33.163Z,4.05
2022-11-08T16:42:05.267Z,3.45
2022-11-08T16:43:37.058Z,4.15
2022-11-08T16:45:09.278Z,3.80
2022-11-08T16:46:41.618Z,3.78
2022-11-08T16:48:17.887Z,3.85
2022-11-08T16:49:51.466Z,3.63
2022-11-08T16:51:25.524Z,3.72
2022-11-08T16:52:57.329Z,3.60
2022-11-08T16:54:29.070Z,3.95
2022-11-08T16:56:01.263Z,3.40
2022-11-08T16:57:35.188Z,3.20
2022-11-08T16:59:07.292Z,3.50
2022-11-08T17:00:40.997Z,3.38
2022-11-08T17:02:30.805Z,3.28
2022-11-08T17:04:02.604Z,3.50
2022-11-08T17:05:34.397Z,3.40
2022-11-08T17:07:08.973Z,3.70
2022-11-08T17:08:47.927Z,4.32
2022-11-08T17:10:24.141Z,4.40
2022-11-08T17:11:55.890Z,4.32
2022-11-08T17:13:27.630Z,4.78
2022-11-08T17:14:59.426Z,4.03
2022-11-08T17:16:31.271Z,4.82
2022-11-08T17:18:03.688Z,4.47
2022-11-08T17:19:35.454Z,5.25
2022-11-08T17:21:30.306Z,4.57
2022-11-08T17:23:00.029Z,4.40
2022-11-08T17:24:32.058Z,4.35
2022-11-08T17:26:10.823Z,4.75
2022-11-08T17:27:43.641Z,4.68
2022-11-08T17:29:15.365Z,5.78
2022-11-08T17:30:47.080Z,5.22
2022-11-08T17:32:18.983Z,4.47
2022-11-08T17:33:50.722Z,4.90
2022-11-08T17:35:22.474Z,4.90
2022-11-08T17:36:54.269Z,4.75
2022-11-08T17:38:26.084Z,4.82
2022-11-08T17:39:57.939Z,4.53
2022-11-08T17:41:30.617Z,5.47
2022-11-08T17:43:02.386Z,4.32
2022-11-08T17:44:34.113Z,4.72
2022-11-08T17:46:06.409Z,4.93
2022-11-08T17:47:38.770Z,5.10
2022-11-08T17:49:10.582Z,5.45
2022-11-08T17:50:47.405Z,5.53
2022-11-08T17:52:19.837Z,5.25
2022-11-08T17:53:51.735Z,5.10
2022-11-08T17:55:23.476Z,5.93
2022-11-08T17:56:55.330Z,5.32
2022-11-08T17:58:28.187Z,6.00
2022-11-08T18:00:00.166Z,5.85
2022-11-08T18:01:32.247Z,5.82
2022-11-08T18:03:08.834Z,5.88
2022-11-08T18:04:43.420Z,5.40
2022-11-08T18:06:16.590Z,6.10
2022-11-08T18:07:48.405Z,5.22
2022-11-08T18:09:20.182Z,4.80
2022-11-08T18:10:52.397Z,5.32
2022-11-08T18:12:24.290Z,4.65
2022-11-08T18:13:56.116Z,5.53
2022-11-08T18:15:28.083Z,4.55
2022-11-08T18:17:00.011Z,4.45
2022-11-08T18:18:31.787Z,5.10
2022-11-08T18:20:03.694Z,4.75
2022-11-08T18:21:35.717Z,5.32
2022-11-08T18:23:08.135Z,4.57
2022-11-08T18:24:39.856Z,5.03
2022-11-08T18:26:13.099Z,4.38
2022-11-08T18:27:44.829Z,4.00
2022-11-08T18:29:16.562Z,4.28
2022-11-08T18:30:48.866Z,4.00
2022-11-08T18:32:20.605Z,4.53
2022-11-08T18:33:52.369Z,4.38
2022-11-08T18:35:24.829Z,4.20
2022-11-08T18:36:56.881Z,3.95
2022-11-08T18:38:28.615Z,4.43
2022-11-08T18:40:00.392Z,3.88
2022-11-08T18:41:33.018Z,4.43
2022-11-08T18:43:05.421Z,4.10
2022-11-08T18:44:37.124Z,3.97
2022-11-08T18:46:12.240Z,3.85
2022-11-08T18:47:44.081Z,3.80
2022-11-08T18:49:16.468Z,3.83
2022-11-08T18:50:51.460Z,3.47
2022-11-08T18:52:23.187Z,3.95
2022-11-08T18:53:55.146Z,3.80
2022-11-08T18:55:27.413Z,4.32
2022-11-08T18:56:59.202Z,3.92
2022-11-08T18:58:31.185Z,3.80
2022-11-08T19:00:04.888Z,4.00
2022-11-08T19:01:36.683Z,3.80
2022-11-08T19:03:08.953Z,3.40
2022-11-08T19:04:40.683Z,3.90
2022-11-08T19:06:12.485Z,4.05
2022-11-08T19:07:44.341Z,3.72
2022-11-08T19:09:16.083Z,3.58
2022-11-08T19:11:03.090Z,4.63
2022-11-08T19:12:34.882Z,3.22
2022-11-08T19:14:06.613Z,3.75
2022-11-08T19:15:38.327Z,3.80
2022-11-08T19:17:10.145Z,3.83
2022-11-08T19:18:42.901Z,3.40
2022-11-08T19:20:14.688Z,3.95
2022-11-08T19:21:46.442Z,3.20
2022-11-08T19:23:21.470Z,3.10
2022-11-08T19:24:53.393Z,3.17
2022-11-08T19:26:27.015Z,3.15
2022-11-08T19:27:58.952Z,3.67
2022-11-08T19:29:30.713Z,3.70
2022-11-08T19:31:02.926Z,3.80
2022-11-08T19:32:34.684Z,3.40
2022-11-08T19:34:06.589Z,3.58
2022-11-08T19:35:38.401Z,3.92
2022-11-08T19:37:10.183Z,4.43
2022-11-08T19:38:42.451Z,4.28
2022-11-08T19:40:14.232Z,3.85
2022-11-08T19:41:46.025Z,4.32
2022-11-08T19:43:18.535Z,4.30
2022-11-08T19:44:50.530Z,4.63
2022-11-08T19:46:26.149Z,5.07
2022-11-08T19:47:57.975Z,4.88
2022-11-08T19:49:30.843Z,4.95
2022-11-08T19:51:04.845Z,4.22
2022-11-08T19:52:36.582Z,4.45
2022-11-08T19:54:12.165Z,3.72
2022-11-08T19:55:44.004Z,4.03
2022-11-08T19:57:15.813Z,4.32
2022-11-08T19:58:48.115Z,3.88
2022-11-08T20:00:21.434Z,3.67
2022-11-08T20:01:53.323Z,3.85
2022-11-08T20:03:25.109Z,4.13
2022-11-08T20:04:56.928Z,4.15
2022-11-08T20:06:29.279Z,4.13
2022-11-08T20:08:04.866Z,3.65
2022-11-08T20:09:36.676Z,3.30
2022-11-08T20:11:23.424Z,3.55
2022-11-08T20:12:55.157Z,3.05
2022-11-08T20:14:26.909Z,3.75
2022-11-08T20:16:08.995Z,3.90
2022-11-08T20:17:40.724Z,3.58
2022-11-08T20:19:16.579Z,3.63
2022-11-08T20:20:48.337Z,3.63
2022-11-08T20:22:20.256Z,3.05
2022-11-08T20:23:51.963Z,3.42
2022-11-08T20:25:24.060Z,3.35
2022-11-08T20:26:55.891Z,3.75
2022-11-08T20:28:28.594Z,3.03
2022-11-08T20:30:00.311Z,4.18
2022-11-08T20:31:32.940Z,4.03
2022-11-08T20:33:04.662Z,3.28
2022-11-08T20:34:38.597Z,3.30
2022-11-08T20:36:13.076Z,3.50
2022-11-08T20:37:44.899Z,3.63
2022-11-08T20:39:16.981Z,2.97
2022-11-08T20:40:48.749Z,3.28
2022-11-08T20:42:23.071Z,3.03
2022-11-08T20:43:56.985Z,3.45
2022-11-08T20:45:28.749Z,3.63
2022-11-08T20:47:05.445Z,3.67
2022-11-08T20:48:42.817Z,3.30
2022-11-08T20:50:14.835Z,4.30
2022-11-08T20:51:46.805Z,4.43
2022-11-08T20:53:18.572Z,4.53
2022-11-08T20:54:50.418Z,4.38
2022-11-08T20:56:23.360Z,4.43
2022-11-08T20:57:55.131Z,4.07
2022-11-08T20:59:26.882Z,4.45
2022-11-08T21:01:00.142Z,4.65
2022-11-08T21:02:31.875Z,3.80
2022-11-08T21:04:03.746Z,4.28
2022-11-08T21:05:35.499Z,4.25
2022-11-08T21:08:00.744Z,4.15
2022-11-08T21:09:03.205Z,3.85
2022-11-08T21:10:43.680Z,3.85
2022-11-08T21:12:15.719Z,4.45
2022-11-08T21:13:47.851Z,4.93
2022-11-08T21:15:24.257Z,4.45
2022-11-08T21:18:50.252Z,4.13
2022-11-08T21:20:22.051Z,3.97
2022-11-08T21:22:13.732Z,4.07
2022-11-08T21:23:47.426Z,3.72
2022-11-08T21:25:19.235Z,4.07
2022-11-08T21:26:50.956Z,3.67
2022-11-08T21:28:22.673Z,3.65
2022-11-08T21:29:54.401Z,3.65
2022-11-08T21:31:26.113Z,3.95
2022-11-08T21:32:57.855Z,3.25
2022-11-08T21:34:32.486Z,3.50
2022-11-08T21:36:05.147Z,3.70
2022-11-08T21:37:36.883Z,3.38
2022-11-08T21:39:09.085Z,3.65